sensor_id;sensor_type;location;lat;lon;timestamp;temperature;humidity
68804;SHT31;55787;52.678;13.314;2023-05-17T00:00:53;6.32;75.72
68804;SHT31;55787;52.678;13.314;2023-05-17T00:03:20;6.31;75.76
68804;SHT31;55787;52.678;13.314;2023-05-17T00:05:47;6.27;76.42
68804;SHT31;55787;52.678;13.314;2023-05-17T00:08:14;6.35;76.27
68804;SHT31;55787;52.678;13.314;2023-05-17T00:10:40;6.40;76.55
68804;SHT31;55787;52.678;13.314;2023-05-17T00:13:08;6.41;76.48
68804;SHT31;55787;52.678;13.314;2023-05-17T00:15:35;6.38;77.11
68804;SHT31;55787;52.678;13.314;2023-05-17T00:18:02;6.35;77.27
68804;SHT31;55787;52.678;13.314;2023-05-17T00:20:29;6.27;77.82
68804;SHT31;55787;52.678;13.314;2023-05-17T00:22:56;6.28;78.11
68804;SHT31;55787;52.678;13.314;2023-05-17T00:25:22;6.20;78.53
68804;SHT31;55787;52.678;13.314;2023-05-17T00:27:49;6.13;79.05
68804;SHT31;55787;52.678;13.314;2023-05-17T00:30:16;6.13;79.61
68804;SHT31;55787;52.678;13.314;2023-05-17T00:32:42;6.10;79.76
68804;SHT31;55787;52.678;13.314;2023-05-17T00:35:12;6.13;80.24
68804;SHT31;55787;52.678;13.314;2023-05-17T00:37:39;6.10;80.45
68804;SHT31;55787;52.678;13.314;2023-05-17T00:40:06;6.13;81.10
68804;SHT31;55787;52.678;13.314;2023-05-17T00:42:33;6.10;81.25
68804;SHT31;55787;52.678;13.314;2023-05-17T00:45:00;6.06;81.04
68804;SHT31;55787;52.678;13.314;2023-05-17T00:47:26;6.10;81.86
68804;SHT31;55787;52.678;13.314;2023-05-17T00:49:53;6.02;82.14
68804;SHT31;55787;52.678;13.314;2023-05-17T00:52:20;6.07;82.58
68804;SHT31;55787;52.678;13.314;2023-05-17T00:54:47;6.14;82.74
68804;SHT31;55787;52.678;13.314;2023-05-17T00:57:14;6.11;83.04
68804;SHT31;55787;52.678;13.314;2023-05-17T00:59:43;6.14;83.17
68804;SHT31;55787;52.678;13.314;2023-05-17T01:02:10;6.23;83.35
68804;SHT31;55787;52.678;13.314;2023-05-17T01:04:37;6.14;83.41
68804;SHT31;55787;52.678;13.314;2023-05-17T01:07:04;6.13;83.74
68804;SHT31;55787;52.678;13.314;2023-05-17T01:09:31;6.11;83.66
68804;SHT31;55787;52.678;13.314;2023-05-17T01:12:14;6.09;84.04
68804;SHT31;55787;52.678;13.314;2023-05-17T01:15:09;6.00;84.55
68804;SHT31;55787;52.678;13.314;2023-05-17T01:17:44;6.06;84.90
68804;SHT31;55787;52.678;13.314;2023-05-17T01:20:30;6.00;84.94
68804;SHT31;55787;52.678;13.314;2023-05-17T01:28:21;5.99;86.20
68804;SHT31;55787;52.678;13.314;2023-05-17T01:30:50;5.97;86.15
68804;SHT31;55787;52.678;13.314;2023-05-17T01:33:18;5.92;86.13
68804;SHT31;55787;52.678;13.314;2023-05-17T01:35:45;5.83;86.53
68804;SHT31;55787;52.678;13.314;2023-05-17T01:38:12;5.85;86.95
68804;SHT31;55787;52.678;13.314;2023-05-17T01:40:44;5.82;86.69
68804;SHT31;55787;52.678;13.314;2023-05-17T01:43:49;5.89;87.26
68804;SHT31;55787;52.678;13.314;2023-05-17T01:46:38;5.85;87.23
68804;SHT31;55787;52.678;13.314;2023-05-17T01:49:26;5.82;87.50
68804;SHT31;55787;52.678;13.314;2023-05-17T01:52:08;5.86;87.72
68804;SHT31;55787;52.678;13.314;2023-05-17T01:54:44;5.96;87.92
68804;SHT31;55787;52.678;13.314;2023-05-17T01:57:13;5.92;87.79
68804;SHT31;55787;52.678;13.314;2023-05-17T01:59:43;5.94;88.16
68804;SHT31;55787;52.678;13.314;2023-05-17T02:02:11;5.90;88.13
68804;SHT31;55787;52.678;13.314;2023-05-17T02:04:39;5.82;88.10
68804;SHT31;55787;52.678;13.314;2023-05-17T02:07:06;5.85;88.49
68804;SHT31;55787;52.678;13.314;2023-05-17T02:09:32;5.83;88.79
68804;SHT31;55787;52.678;13.314;2023-05-17T02:11:59;5.85;88.82
68804;SHT31;55787;52.678;13.314;2023-05-17T02:14:26;5.89;89.01
68804;SHT31;55787;52.678;13.314;2023-05-17T02:16:54;5.96;88.98
68804;SHT31;55787;52.678;13.314;2023-05-17T02:19:21;5.99;88.65
68804;SHT31;55787;52.678;13.314;2023-05-17T02:21:48;6.00;88.76
68804;SHT31;55787;52.678;13.314;2023-05-17T02:24:14;6.11;88.55
68804;SHT31;55787;52.678;13.314;2023-05-17T02:26:41;6.18;88.33
68804;SHT31;55787;52.678;13.314;2023-05-17T02:29:08;6.24;88.12
68804;SHT31;55787;52.678;13.314;2023-05-17T02:31:39;6.34;87.88
68804;SHT31;55787;52.678;13.314;2023-05-17T02:34:06;6.42;87.72
68804;SHT31;55787;52.678;13.314;2023-05-17T02:36:33;6.44;87.59
68804;SHT31;55787;52.678;13.314;2023-05-17T02:39:00;6.52;87.34
68804;SHT31;55787;52.678;13.314;2023-05-17T02:41:27;6.62;87.19
68804;SHT31;55787;52.678;13.314;2023-05-17T02:43:53;6.62;87.19
68804;SHT31;55787;52.678;13.314;2023-05-17T02:46:21;6.67;87.30
68804;SHT31;55787;52.678;13.314;2023-05-17T02:48:47;6.69;87.37
68804;SHT31;55787;52.678;13.314;2023-05-17T02:51:14;6.75;87.00
68804;SHT31;55787;52.678;13.314;2023-05-17T02:53:41;6.79;86.91
68804;SHT31;55787;52.678;13.314;2023-05-17T02:56:07;6.85;86.54
68804;SHT31;55787;52.678;13.314;2023-05-17T02:58:34;6.81;86.73
68804;SHT31;55787;52.678;13.314;2023-05-17T03:01:01;6.72;87.05
68804;SHT31;55787;52.678;13.314;2023-05-17T03:03:27;6.64;87.44
68804;SHT31;55787;52.678;13.314;2023-05-17T03:05:59;6.58;87.71
68804;SHT31;55787;52.678;13.314;2023-05-17T03:08:25;6.52;88.08
68804;SHT31;55787;52.678;13.314;2023-05-17T03:10:52;6.46;88.34
68804;SHT31;55787;52.678;13.314;2023-05-17T03:13:19;6.44;88.70
68804;SHT31;55787;52.678;13.314;2023-05-17T03:15:45;6.48;88.74
68804;SHT31;55787;52.678;13.314;2023-05-17T03:18:12;6.56;88.42
68804;SHT31;55787;52.678;13.314;2023-05-17T03:20:39;6.64;88.30
68804;SHT31;55787;52.678;13.314;2023-05-17T03:23:06;6.75;87.99
68804;SHT31;55787;52.678;13.314;2023-05-17T03:25:33;6.79;87.70
68804;SHT31;55787;52.678;13.314;2023-05-17T03:27:59;6.85;87.48
68804;SHT31;55787;52.678;13.314;2023-05-17T03:30:26;6.91;87.61
68804;SHT31;55787;52.678;13.314;2023-05-17T03:32:53;6.95;87.52
68804;SHT31;55787;52.678;13.314;2023-05-17T03:35:20;7.03;87.35
68804;SHT31;55787;52.678;13.314;2023-05-17T03:37:47;7.03;87.30
68804;SHT31;55787;52.678;13.314;2023-05-17T03:40:14;7.16;86.90
68804;SHT31;55787;52.678;13.314;2023-05-17T03:42:40;7.16;87.01
68804;SHT31;55787;52.678;13.314;2023-05-17T03:45:07;7.17;86.84
68804;SHT31;55787;52.678;13.314;2023-05-17T03:47:34;7.20;87.12
68804;SHT31;55787;52.678;13.314;2023-05-17T03:50:01;7.26;87.11
68804;SHT31;55787;52.678;13.314;2023-05-17T03:52:28;7.26;86.81
68804;SHT31;55787;52.678;13.314;2023-05-17T03:54:54;7.24;87.10
68804;SHT31;55787;52.678;13.314;2023-05-17T03:57:21;7.30;86.92
68804;SHT31;55787;52.678;13.314;2023-05-17T03:59:48;7.27;86.98
68804;SHT31;55787;52.678;13.314;2023-05-17T04:02:15;7.27;87.16
68804;SHT31;55787;52.678;13.314;2023-05-17T04:04:51;7.20;87.33
68804;SHT31;55787;52.678;13.314;2023-05-17T04:07:21;7.12;87.62
68804;SHT31;55787;52.678;13.314;2023-05-17T04:09:48;7.09;87.75
68804;SHT31;55787;52.678;13.314;2023-05-17T04:12:15;7.00;88.08
68804;SHT31;55787;52.678;13.314;2023-05-17T04:14:41;6.95;88.31
68804;SHT31;55787;52.678;13.314;2023-05-17T04:17:08;6.95;88.17
68804;SHT31;55787;52.678;13.314;2023-05-17T04:19:35;6.95;88.55
68804;SHT31;55787;52.678;13.314;2023-05-17T04:22:01;6.92;88.66
68804;SHT31;55787;52.678;13.314;2023-05-17T04:24:28;6.96;88.38
68804;SHT31;55787;52.678;13.314;2023-05-17T04:26:55;7.00;88.39
68804;SHT31;55787;52.678;13.314;2023-05-17T04:29:22;7.07;88.15
68804;SHT31;55787;52.678;13.314;2023-05-17T04:31:49;7.10;87.78
68804;SHT31;55787;52.678;13.314;2023-05-17T04:34:15;7.13;87.95
68804;SHT31;55787;52.678;13.314;2023-05-17T04:36:42;7.13;87.92
68804;SHT31;55787;52.678;13.314;2023-05-17T04:39:09;7.23;87.42
68804;SHT31;55787;52.678;13.314;2023-05-17T04:41:35;7.24;87.44
68804;SHT31;55787;52.678;13.314;2023-05-17T04:44:04;7.24;87.41
68804;SHT31;55787;52.678;13.314;2023-05-17T04:46:31;7.35;87.21
68804;SHT31;55787;52.678;13.314;2023-05-17T04:48:57;7.35;86.96
68804;SHT31;55787;52.678;13.314;2023-05-17T04:51:25;7.38;86.92
68804;SHT31;55787;52.678;13.314;2023-05-17T04:53:52;7.65;86.23
68804;SHT31;55787;52.678;13.314;2023-05-17T04:56:19;7.65;85.70
68804;SHT31;55787;52.678;13.314;2023-05-17T04:58:45;7.78;85.40
68804;SHT31;55787;52.678;13.314;2023-05-17T05:01:12;7.79;85.01
68804;SHT31;55787;52.678;13.314;2023-05-17T05:03:38;7.95;85.08
68804;SHT31;55787;52.678;13.314;2023-05-17T05:06:05;7.86;83.91
68804;SHT31;55787;52.678;13.314;2023-05-17T05:08:32;8.12;84.16
68804;SHT31;55787;52.678;13.314;2023-05-17T05:10:59;8.10;83.33
68804;SHT31;55787;52.678;13.314;2023-05-17T05:13:26;8.33;82.87
68804;SHT31;55787;52.678;13.314;2023-05-17T05:15:53;8.47;82.38
68804;SHT31;55787;52.678;13.314;2023-05-17T05:18:20;8.53;82.22
68804;SHT31;55787;52.678;13.314;2023-05-17T05:20:47;8.68;81.68
68804;SHT31;55787;52.678;13.314;2023-05-17T05:23:14;8.83;81.07
68804;SHT31;55787;52.678;13.314;2023-05-17T05:25:42;9.05;81.34
68804;SHT31;55787;52.678;13.314;2023-05-17T05:28:09;9.24;80.03
68804;SHT31;55787;52.678;13.314;2023-05-17T05:30:36;9.67;79.60
68804;SHT31;55787;52.678;13.314;2023-05-17T05:33:03;10.11;78.74
68804;SHT31;55787;52.678;13.314;2023-05-17T05:35:30;9.95;77.19
68804;SHT31;55787;52.678;13.314;2023-05-17T05:37:57;10.07;77.09
68804;SHT31;55787;52.678;13.314;2023-05-17T05:40:24;10.05;77.45
68804;SHT31;55787;52.678;13.314;2023-05-17T05:42:51;9.43;77.34
68804;SHT31;55787;52.678;13.314;2023-05-17T05:45:18;9.80;77.42
68804;SHT31;55787;52.678;13.314;2023-05-17T05:47:45;10.03;76.31
68804;SHT31;55787;52.678;13.314;2023-05-17T05:50:12;10.25;75.92
68804;SHT31;55787;52.678;13.314;2023-05-17T05:52:38;9.76;75.42
68804;SHT31;55787;52.678;13.314;2023-05-17T05:55:05;9.84;75.04
68804;SHT31;55787;52.678;13.314;2023-05-17T05:57:58;10.68;72.41
68804;SHT31;55787;52.678;13.314;2023-05-17T06:00:25;11.44;68.33
68804;SHT31;55787;52.678;13.314;2023-05-17T06:02:52;13.04;63.43
68804;SHT31;55787;52.678;13.314;2023-05-17T06:05:19;13.39;60.70
68804;SHT31;55787;52.678;13.314;2023-05-17T06:07:46;13.45;60.92
68804;SHT31;55787;52.678;13.314;2023-05-17T06:10:12;12.09;64.02
68804;SHT31;55787;52.678;13.314;2023-05-17T06:12:39;10.96;67.14
68804;SHT31;55787;52.678;13.314;2023-05-17T06:15:06;10.80;68.24
68804;SHT31;55787;52.678;13.314;2023-05-17T06:17:33;11.64;65.83
68804;SHT31;55787;52.678;13.314;2023-05-17T06:20:00;11.54;65.98
68804;SHT31;55787;52.678;13.314;2023-05-17T06:22:26;12.09;64.36
68804;SHT31;55787;52.678;13.314;2023-05-17T06:24:53;12.63;62.28
68804;SHT31;55787;52.678;13.314;2023-05-17T06:27:20;13.25;60.38
68804;SHT31;55787;52.678;13.314;2023-05-17T06:29:46;12.46;61.42
68804;SHT31;55787;52.678;13.314;2023-05-17T06:32:13;13.02;60.59
68804;SHT31;55787;52.678;13.314;2023-05-17T06:34:40;12.25;60.79
68804;SHT31;55787;52.678;13.314;2023-05-17T06:37:06;12.47;61.05
68804;SHT31;55787;52.678;13.314;2023-05-17T06:39:33;12.05;61.07
68804;SHT31;55787;52.678;13.314;2023-05-17T06:41:59;11.23;61.85
68804;SHT31;55787;52.678;13.314;2023-05-17T06:44:28;11.58;60.68
68804;SHT31;55787;52.678;13.314;2023-05-17T06:46:55;11.79;61.50
68804;SHT31;55787;52.678;13.314;2023-05-17T06:49:22;11.33;60.78
68804;SHT31;55787;52.678;13.314;2023-05-17T06:51:48;12.71;57.25
68804;SHT31;55787;52.678;13.314;2023-05-17T06:54:15;13.99;52.57
68804;SHT31;55787;52.678;13.314;2023-05-17T06:56:42;15.90;48.31
68804;SHT31;55787;52.678;13.314;2023-05-17T06:59:08;16.15;47.44
68804;SHT31;55787;52.678;13.314;2023-05-17T07:01:35;15.74;48.08
68804;SHT31;55787;52.678;13.314;2023-05-17T07:04:02;14.28;50.41
68804;SHT31;55787;52.678;13.314;2023-05-17T07:06:29;15.72;46.88
68804;SHT31;55787;52.678;13.314;2023-05-17T07:08:56;16.93;42.73
68804;SHT31;55787;52.678;13.314;2023-05-17T07:11:23;17.66;42.14
68804;SHT31;55787;52.678;13.314;2023-05-17T07:13:49;18.69;40.76
68804;SHT31;55787;52.678;13.314;2023-05-17T07:16:19;18.99;39.24
68804;SHT31;55787;52.678;13.314;2023-05-17T07:18:46;16.77;41.68
68804;SHT31;55787;52.678;13.314;2023-05-17T07:21:13;18.26;41.84
68804;SHT31;55787;52.678;13.314;2023-05-17T07:23:39;18.92;39.40
68804;SHT31;55787;52.678;13.314;2023-05-17T07:26:06;19.20;38.41
68804;SHT31;55787;52.678;13.314;2023-05-17T07:28:33;19.92;37.73
68804;SHT31;55787;52.678;13.314;2023-05-17T07:30:59;20.15;36.21
68804;SHT31;55787;52.678;13.314;2023-05-17T07:33:27;20.04;36.43
68804;SHT31;55787;52.678;13.314;2023-05-17T07:35:53;19.73;36.62
68804;SHT31;55787;52.678;13.314;2023-05-17T07:38:20;20.65;35.75
68804;SHT31;55787;52.678;13.314;2023-05-17T07:40:47;21.01;34.33
68804;SHT31;55787;52.678;13.314;2023-05-17T07:43:14;20.84;34.87
68804;SHT31;55787;52.678;13.314;2023-05-17T07:45:42;21.04;34.44
68804;SHT31;55787;52.678;13.314;2023-05-17T07:48:09;20.91;35.08
68804;SHT31;55787;52.678;13.314;2023-05-17T07:50:35;18.81;36.10
68804;SHT31;55787;52.678;13.314;2023-05-17T07:53:02;19.29;36.95
68804;SHT31;55787;52.678;13.314;2023-05-17T07:55:29;19.75;36.56
68804;SHT31;55787;52.678;13.314;2023-05-17T07:57:56;21.10;35.01
68804;SHT31;55787;52.678;13.314;2023-05-17T08:00:23;20.66;35.65
68804;SHT31;55787;52.678;13.314;2023-05-17T08:02:50;21.07;34.30
68804;SHT31;55787;52.678;13.314;2023-05-17T08:05:17;21.41;34.38
68804;SHT31;55787;52.678;13.314;2023-05-17T08:07:43;22.06;32.97
68804;SHT31;55787;52.678;13.314;2023-05-17T08:10:10;21.71;32.77
68804;SHT31;55787;52.678;13.314;2023-05-17T08:12:37;22.53;33.18
68804;SHT31;55787;52.678;13.314;2023-05-17T08:15:04;22.19;32.08
68804;SHT31;55787;52.678;13.314;2023-05-17T08:17:31;21.75;31.15
68804;SHT31;55787;52.678;13.314;2023-05-17T08:19:58;22.09;32.22
68804;SHT31;55787;52.678;13.314;2023-05-17T08:22:24;22.77;31.44
68804;SHT31;55787;52.678;13.314;2023-05-17T08:24:52;22.61;33.19
68804;SHT31;55787;52.678;13.314;2023-05-17T08:27:18;22.91;30.92
68804;SHT31;55787;52.678;13.314;2023-05-17T08:29:45;23.28;31.67
68804;SHT31;55787;52.678;13.314;2023-05-17T08:32:12;22.10;32.29
68804;SHT31;55787;52.678;13.314;2023-05-17T08:34:38;23.20;30.26
68804;SHT31;55787;52.678;13.314;2023-05-17T08:37:05;23.60;30.43
68804;SHT31;55787;52.678;13.314;2023-05-17T08:39:32;23.14;30.13
68804;SHT31;55787;52.678;13.314;2023-05-17T08:41:59;22.54;31.07
68804;SHT31;55787;52.678;13.314;2023-05-17T08:44:27;22.78;29.18
68804;SHT31;55787;52.678;13.314;2023-05-17T08:46:55;22.72;30.29
68804;SHT31;55787;52.678;13.314;2023-05-17T08:49:22;22.08;31.28
68804;SHT31;55787;52.678;13.314;2023-05-17T08:51:52;23.69;29.24
68804;SHT31;55787;52.678;13.314;2023-05-17T08:54:19;23.26;30.45
68804;SHT31;55787;52.678;13.314;2023-05-17T08:56:46;22.46;31.54
68804;SHT31;55787;52.678;13.314;2023-05-17T08:59:17;23.46;30.49
68804;SHT31;55787;52.678;13.314;2023-05-17T09:01:47;23.49;30.20
68804;SHT31;55787;52.678;13.314;2023-05-17T09:04:15;24.06;29.64
68804;SHT31;55787;52.678;13.314;2023-05-17T09:06:42;21.95;33.15
68804;SHT31;55787;52.678;13.314;2023-05-17T09:09:10;23.33;31.24
68804;SHT31;55787;52.678;13.314;2023-05-17T09:11:37;23.67;30.77
68804;SHT31;55787;52.678;13.314;2023-05-17T09:14:05;23.83;30.82
68804;SHT31;55787;52.678;13.314;2023-05-17T09:16:35;24.00;30.94
68804;SHT31;55787;52.678;13.314;2023-05-17T09:19:04;24.68;29.41
68804;SHT31;55787;52.678;13.314;2023-05-17T09:21:31;23.93;29.80
68804;SHT31;55787;52.678;13.314;2023-05-17T09:23:59;21.83;30.61
68804;SHT31;55787;52.678;13.314;2023-05-17T09:26:42;23.55;30.69
68804;SHT31;55787;52.678;13.314;2023-05-17T09:29:11;24.57;28.63
68804;SHT31;55787;52.678;13.314;2023-05-17T09:31:39;23.90;29.46
68804;SHT31;55787;52.678;13.314;2023-05-17T09:34:06;21.88;30.45
68804;SHT31;55787;52.678;13.314;2023-05-17T09:36:40;24.18;29.45
68804;SHT31;55787;52.678;13.314;2023-05-17T09:39:07;24.68;28.85
68804;SHT31;55787;52.678;13.314;2023-05-17T09:41:45;25.16;28.79
68804;SHT31;55787;52.678;13.314;2023-05-17T09:44:16;24.55;29.28
68804;SHT31;55787;52.678;13.314;2023-05-17T09:46:44;24.59;29.30
68804;SHT31;55787;52.678;13.314;2023-05-17T09:49:12;23.96;29.35
68804;SHT31;55787;52.678;13.314;2023-05-17T09:51:43;24.04;29.10
68804;SHT31;55787;52.678;13.314;2023-05-17T09:54:11;25.31;27.21
68804;SHT31;55787;52.678;13.314;2023-05-17T09:56:38;25.10;28.59
68804;SHT31;55787;52.678;13.314;2023-05-17T09:59:12;25.38;26.82
68804;SHT31;55787;52.678;13.314;2023-05-17T10:01:41;25.54;27.78
68804;SHT31;55787;52.678;13.314;2023-05-17T10:04:09;25.07;27.70
68804;SHT31;55787;52.678;13.314;2023-05-17T10:06:41;25.64;26.22
68804;SHT31;55787;52.678;13.314;2023-05-17T10:09:17;22.47;29.28
68804;SHT31;55787;52.678;13.314;2023-05-17T10:11:47;24.68;28.55
68804;SHT31;55787;52.678;13.314;2023-05-17T10:14:27;24.95;27.69
68804;SHT31;55787;52.678;13.314;2023-05-17T10:16:54;23.97;27.86
68804;SHT31;55787;52.678;13.314;2023-05-17T10:19:23;24.96;27.94
68804;SHT31;55787;52.678;13.314;2023-05-17T10:21:52;24.90;27.46
68804;SHT31;55787;52.678;13.314;2023-05-17T10:24:20;25.13;28.14
68804;SHT31;55787;52.678;13.314;2023-05-17T10:26:49;25.20;28.52
68804;SHT31;55787;52.678;13.314;2023-05-17T10:29:16;25.56;26.96
68804;SHT31;55787;52.678;13.314;2023-05-17T10:31:46;26.09;26.92
68804;SHT31;55787;52.678;13.314;2023-05-17T10:34:14;26.31;26.59
68804;SHT31;55787;52.678;13.314;2023-05-17T10:36:42;26.12;26.39
68804;SHT31;55787;52.678;13.314;2023-05-17T10:39:10;26.29;25.23
68804;SHT31;55787;52.678;13.314;2023-05-17T10:41:42;24.82;28.42
68804;SHT31;55787;52.678;13.314;2023-05-17T10:44:12;23.55;29.93
68804;SHT31;55787;52.678;13.314;2023-05-17T10:46:40;24.31;28.84
68804;SHT31;55787;52.678;13.314;2023-05-17T10:49:16;24.71;28.93
68804;SHT31;55787;52.678;13.314;2023-05-17T10:51:49;25.16;28.45
68804;SHT31;55787;52.678;13.314;2023-05-17T10:54:17;25.22;27.77
68804;SHT31;55787;52.678;13.314;2023-05-17T10:56:50;24.61;28.55
68804;SHT31;55787;52.678;13.314;2023-05-17T10:59:24;24.64;27.96
68804;SHT31;55787;52.678;13.314;2023-05-17T11:04:21;24.90;27.43
68804;SHT31;55787;52.678;13.314;2023-05-17T11:07:18;26.02;25.86
68804;SHT31;55787;52.678;13.314;2023-05-17T11:09:51;25.13;26.39
68804;SHT31;55787;52.678;13.314;2023-05-17T11:14:57;23.96;24.90
68804;SHT31;55787;52.678;13.314;2023-05-17T11:17:26;25.51;26.65
68804;SHT31;55787;52.678;13.314;2023-05-17T11:22:26;25.74;26.85
68804;SHT31;55787;52.678;13.314;2023-05-17T11:24:56;24.20;27.86
68804;SHT31;55787;52.678;13.314;2023-05-17T11:27:23;23.25;29.21
68804;SHT31;55787;52.678;13.314;2023-05-17T11:29:53;22.74;29.01
68804;SHT31;55787;52.678;13.314;2023-05-17T11:32:31;22.64;29.48
68804;SHT31;55787;52.678;13.314;2023-05-17T11:34:58;23.88;29.12
68804;SHT31;55787;52.678;13.314;2023-05-17T11:37:28;24.06;26.98
68804;SHT31;55787;52.678;13.314;2023-05-17T11:40:03;24.73;27.57
68804;SHT31;55787;52.678;13.314;2023-05-17T11:42:33;23.66;28.88
68804;SHT31;55787;52.678;13.314;2023-05-17T11:45:00;24.83;27.75
68804;SHT31;55787;52.678;13.314;2023-05-17T11:47:27;25.44;27.73
68804;SHT31;55787;52.678;13.314;2023-05-17T11:49:55;25.07;27.15
68804;SHT31;55787;52.678;13.314;2023-05-17T11:52:26;25.41;25.91
68804;SHT31;55787;52.678;13.314;2023-05-17T11:54:56;23.90;27.77
68804;SHT31;55787;52.678;13.314;2023-05-17T11:57:30;24.59;26.91
68804;SHT31;55787;52.678;13.314;2023-05-17T11:59:58;24.87;26.32
68804;SHT31;55787;52.678;13.314;2023-05-17T12:02:27;24.90;25.52
68804;SHT31;55787;52.678;13.314;2023-05-17T12:04:54;24.57;28.11
68804;SHT31;55787;52.678;13.314;2023-05-17T12:07:21;24.20;27.37
68804;SHT31;55787;52.678;13.314;2023-05-17T12:09:48;24.79;28.07
68804;SHT31;55787;52.678;13.314;2023-05-17T12:12:15;25.34;27.96
68804;SHT31;55787;52.678;13.314;2023-05-17T12:14:42;25.98;27.46
68804;SHT31;55787;52.678;13.314;2023-05-17T12:17:12;25.23;26.99
68804;SHT31;55787;52.678;13.314;2023-05-17T12:19:42;25.85;26.80
68804;SHT31;55787;52.678;13.314;2023-05-17T12:22:10;25.58;27.07
68804;SHT31;55787;52.678;13.314;2023-05-17T12:24:41;25.73;25.49
68804;SHT31;55787;52.678;13.314;2023-05-17T12:27:08;23.56;27.31
68804;SHT31;55787;52.678;13.314;2023-05-17T12:29:37;25.13;27.03
68804;SHT31;55787;52.678;13.314;2023-05-17T12:32:04;25.53;27.54
68804;SHT31;55787;52.678;13.314;2023-05-17T12:34:32;24.57;25.60
68804;SHT31;55787;52.678;13.314;2023-05-17T12:36:59;25.16;26.40
68804;SHT31;55787;52.678;13.314;2023-05-17T12:39:26;25.81;27.27
68804;SHT31;55787;52.678;13.314;2023-05-17T12:41:53;25.98;26.50
68804;SHT31;55787;52.678;13.314;2023-05-17T12:44:20;25.70;27.17
68804;SHT31;55787;52.678;13.314;2023-05-17T12:46:47;25.82;27.30
68804;SHT31;55787;52.678;13.314;2023-05-17T12:49:19;25.73;27.63
68804;SHT31;55787;52.678;13.314;2023-05-17T12:51:49;25.50;27.86
68804;SHT31;55787;52.678;13.314;2023-05-17T12:54:28;25.16;27.54
68804;SHT31;55787;52.678;13.314;2023-05-17T12:56:55;24.48;28.01
68804;SHT31;55787;52.678;13.314;2023-05-17T12:59:23;24.86;28.14
68804;SHT31;55787;52.678;13.314;2023-05-17T13:01:56;21.79;30.41
68804;SHT31;55787;52.678;13.314;2023-05-17T13:04:33;22.57;28.97
68804;SHT31;55787;52.678;13.314;2023-05-17T13:07:03;23.01;30.00
68804;SHT31;55787;52.678;13.314;2023-05-17T13:09:31;24.24;30.45
68804;SHT31;55787;52.678;13.314;2023-05-17T13:12:06;25.30;28.03
68804;SHT31;55787;52.678;13.314;2023-05-17T13:17:17;24.58;28.10
68804;SHT31;55787;52.678;13.314;2023-05-17T13:19:46;23.92;27.89
68804;SHT31;55787;52.678;13.314;2023-05-17T13:22:13;23.76;30.03
68804;SHT31;55787;52.678;13.314;2023-05-17T13:24:42;23.05;28.85
68804;SHT31;55787;52.678;13.314;2023-05-17T13:27:10;22.99;31.60
68804;SHT31;55787;52.678;13.314;2023-05-17T13:29:39;19.91;32.91
68804;SHT31;55787;52.678;13.314;2023-05-17T13:32:08;20.96;33.82
68804;SHT31;55787;52.678;13.314;2023-05-17T13:34:36;21.34;32.22
68804;SHT31;55787;52.678;13.314;2023-05-17T13:37:04;20.86;32.46
68804;SHT31;55787;52.678;13.314;2023-05-17T13:39:32;20.94;31.35
68804;SHT31;55787;52.678;13.314;2023-05-17T13:41:59;21.48;33.56
68804;SHT31;55787;52.678;13.314;2023-05-17T13:44:25;21.42;32.85
68804;SHT31;55787;52.678;13.314;2023-05-17T13:46:52;21.37;33.89
68804;SHT31;55787;52.678;13.314;2023-05-17T13:49:19;21.38;32.42
68804;SHT31;55787;52.678;13.314;2023-05-17T13:51:46;19.59;33.61
68804;SHT31;55787;52.678;13.314;2023-05-17T13:54:13;19.71;33.94
68804;SHT31;55787;52.678;13.314;2023-05-17T13:56:39;19.01;35.37
68804;SHT31;55787;52.678;13.314;2023-05-17T13:59:06;19.94;35.67
68804;SHT31;55787;52.678;13.314;2023-05-17T14:01:33;20.49;34.79
68804;SHT31;55787;52.678;13.314;2023-05-17T14:03:59;20.21;33.59
68804;SHT31;55787;52.678;13.314;2023-05-17T14:06:26;19.84;35.43
68804;SHT31;55787;52.678;13.314;2023-05-17T14:08:54;19.43;35.17
68804;SHT31;55787;52.678;13.314;2023-05-17T14:11:22;19.02;35.79
68804;SHT31;55787;52.678;13.314;2023-05-17T14:13:49;18.47;36.39
68804;SHT31;55787;52.678;13.314;2023-05-17T14:16:15;18.09;36.87
68804;SHT31;55787;52.678;13.314;2023-05-17T14:18:42;18.30;37.14
68804;SHT31;55787;52.678;13.314;2023-05-17T14:21:09;18.88;36.87
68804;SHT31;55787;52.678;13.314;2023-05-17T14:23:35;19.40;36.25
68804;SHT31;55787;52.678;13.314;2023-05-17T14:26:03;19.33;35.86
68804;SHT31;55787;52.678;13.314;2023-05-17T14:28:32;18.98;37.28
68804;SHT31;55787;52.678;13.314;2023-05-17T14:31:01;19.20;36.88
68804;SHT31;55787;52.678;13.314;2023-05-17T14:33:28;19.23;36.76
68804;SHT31;55787;52.678;13.314;2023-05-17T14:35:55;19.15;35.42
68804;SHT31;55787;52.678;13.314;2023-05-17T14:38:21;19.18;36.31
68804;SHT31;55787;52.678;13.314;2023-05-17T14:40:48;19.22;36.30
68804;SHT31;55787;52.678;13.314;2023-05-17T14:43:15;18.79;36.28
68804;SHT31;55787;52.678;13.314;2023-05-17T14:45:42;18.44;36.77
68804;SHT31;55787;52.678;13.314;2023-05-17T14:48:08;18.55;38.37
68804;SHT31;55787;52.678;13.314;2023-05-17T14:50:35;18.89;37.29
68804;SHT31;55787;52.678;13.314;2023-05-17T14:53:02;18.99;35.33
68804;SHT31;55787;52.678;13.314;2023-05-17T14:55:28;18.81;36.35
68804;SHT31;55787;52.678;13.314;2023-05-17T14:57:56;18.62;36.99
68804;SHT31;55787;52.678;13.314;2023-05-17T15:00:23;18.72;36.97
68804;SHT31;55787;52.678;13.314;2023-05-17T15:02:52;18.82;36.93
68804;SHT31;55787;52.678;13.314;2023-05-17T15:05:19;18.84;36.84
68804;SHT31;55787;52.678;13.314;2023-05-17T15:07:46;18.98;37.16
68804;SHT31;55787;52.678;13.314;2023-05-17T15:10:13;18.84;36.36
68804;SHT31;55787;52.678;13.314;2023-05-17T15:12:40;18.27;35.79
68804;SHT31;55787;52.678;13.314;2023-05-17T15:15:07;18.14;37.09
68804;SHT31;55787;52.678;13.314;2023-05-17T15:17:34;18.01;37.63
68804;SHT31;55787;52.678;13.314;2023-05-17T15:23:48;17.89;38.59
68804;SHT31;55787;52.678;13.314;2023-05-17T15:26:16;17.63;38.39
68804;SHT31;55787;52.678;13.314;2023-05-17T15:28:42;17.56;39.25
68804;SHT31;55787;52.678;13.314;2023-05-17T15:31:09;17.30;38.69
68804;SHT31;55787;52.678;13.314;2023-05-17T15:33:37;17.35;38.82
68804;SHT31;55787;52.678;13.314;2023-05-17T15:36:09;17.24;38.50
68804;SHT31;55787;52.678;13.314;2023-05-17T15:38:38;17.20;40.06
68804;SHT31;55787;52.678;13.314;2023-05-17T15:41:06;17.17;39.42
68804;SHT31;55787;52.678;13.314;2023-05-17T15:43:33;17.12;39.43
68804;SHT31;55787;52.678;13.314;2023-05-17T15:46:00;17.12;39.10
68804;SHT31;55787;52.678;13.314;2023-05-17T15:48:27;16.85;39.86